Time;durP1;ratioP1;P1;durP2;ratioP2;P2;SDS_P1;SDS_P2;PMS_P1;PMS_P2;Temp;Humidity;BMP_temperature;BMP_pressure;BME280_temperature;BME280_humidity;BME280_pressure;Samples;Min_cycle;Max_cycle;Signal;HPM_P1;HPM_P2
2023/01/22 00:01:04;;;;;;;223.57;214.97;;;-0.10;99.90;;;;;;5022944;28;20476;-82
2023/01/22 00:03:31;;;;;;;225.47;215.40;;;0.10;99.90;;;;;;5020509;28;20457;-82
2023/01/22 00:05:58;;;;;;;202.60;194.07;;;0.10;99.90;;;;;;5036038;28;20448;-82
2023/01/22 00:08:24;;;;;;;208.75;199.27;;;0.20;99.90;;;;;;5040412;28;20544;-82
2023/01/22 00:10:52;;;;;;;197.57;188.23;;;0.20;99.90;;;;;;5025779;28;20569;-83
2023/01/22 00:13:20;;;;;;;183.13;174.77;;;0.30;99.90;;;;;;5020250;28;20464;-82
2023/01/22 00:15:47;;;;;;;171.30;163.57;;;0.30;99.90;;;;;;5033100;28;20472;-82
2023/01/22 00:18:15;;;;;;;165.93;157.33;;;0.40;99.90;;;;;;5039901;28;20578;-82
2023/01/22 00:20:46;;;;;;;159.23;150.93;;;0.50;99.90;;;;;;5028459;28;20454;-82
2023/01/22 00:23:13;;;;;;;154.27;146.13;;;0.50;99.90;;;;;;5020398;28;20972;-82
2023/01/22 00:25:40;;;;;;;151.30;143.37;;;0.60;99.90;;;;;;5031235;28;20456;-81
2023/01/22 00:28:07;;;;;;;147.50;140.00;;;0.60;99.90;;;;;;5039892;28;20468;-83
2023/01/22 00:30:34;;;;;;;152.30;145.40;;;0.70;99.90;;;;;;5030340;28;20453;-82
2023/01/22 00:33:01;;;;;;;146.53;139.20;;;0.70;99.90;;;;;;5020064;28;20452;-83
2023/01/22 00:35:29;;;;;;;148.33;141.13;;;0.80;99.90;;;;;;5027342;28;20475;-81
2023/01/22 00:37:56;;;;;;;145.27;138.07;;;0.70;99.90;;;;;;5038559;28;20994;-82
2023/01/22 00:40:22;;;;;;;148.23;141.27;;;0.80;99.90;;;;;;5032586;28;20449;-83
2023/01/22 00:42:49;;;;;;;143.10;135.00;;;0.80;99.90;;;;;;5019170;28;20457;-83
2023/01/22 00:45:16;;;;;;;156.47;148.90;;;0.70;99.90;;;;;;5030615;28;20456;-82
2023/01/22 00:47:43;;;;;;;151.97;145.03;;;0.80;99.90;;;;;;5038828;28;20468;-82
2023/01/22 00:50:11;;;;;;;158.20;151.80;;;0.80;99.90;;;;;;5029253;28;20818;-83
2023/01/22 00:52:39;;;;;;;167.37;160.87;;;0.80;99.90;;;;;;5019756;28;20453;-82
2023/01/22 00:55:07;;;;;;;155.30;148.57;;;0.80;99.90;;;;;;5028504;28;20455;-83
2023/01/22 00:57:33;;;;;;;132.53;124.90;;;0.80;99.90;;;;;;5038917;28;20514;-82
2023/01/22 01:00:00;;;;;;;123.17;117.13;;;0.80;99.90;;;;;;5032129;28;20822;-84
2023/01/22 01:02:27;;;;;;;116.20;110.13;;;0.80;99.90;;;;;;5019471;28;20456;-82
2023/01/22 01:04:55;;;;;;;94.53;89.03;;;0.80;99.90;;;;;;5025259;28;20455;-82
2023/01/22 01:07:22;;;;;;;107.63;102.03;;;0.80;99.90;;;;;;5039494;28;20468;-83
2023/01/22 01:09:50;;;;;;;124.13;117.83;;;0.80;99.90;;;;;;5034137;28;20477;-82
2023/01/22 01:12:17;;;;;;;111.13;104.97;;;0.80;99.90;;;;;;5019552;28;20464;-81
2023/01/22 01:14:44;;;;;;;101.53;96.60;;;0.80;99.90;;;;;;5020163;28;20517;-82
2023/01/22 01:17:10;;;;;;;95.70;91.50;;;0.80;99.90;;;;;;5019317;28;20484;-82
2023/01/22 01:19:37;;;;;;;83.67;79.70;;;0.90;99.90;;;;;;5019964;28;20452;-83
2023/01/22 01:22:05;;;;;;;82.03;77.97;;;0.80;99.90;;;;;;5019392;28;20453;-82
2023/01/22 01:24:31;;;;;;;82.47;77.00;;;0.90;99.90;;;;;;5020029;28;20480;-82
2023/01/22 01:26:59;;;;;;;74.03;69.70;;;0.80;99.90;;;;;;5038987;28;20531;-83
2023/01/22 01:29:26;;;;;;;73.10;68.17;;;0.90;99.90;;;;;;5039013;28;20455;-82
2023/01/22 01:31:53;;;;;;;69.53;64.03;;;0.90;99.90;;;;;;5038988;28;20463;-82
2023/01/22 01:34:20;;;;;;;63.97;59.47;;;0.90;99.90;;;;;;5035567;28;20453;-81
2023/01/22 01:36:47;;;;;;;58.60;53.83;;;0.90;99.90;;;;;;5018696;28;20481;-83
2023/01/22 01:39:13;;;;;;;56.80;51.20;;;0.90;99.90;;;;;;5021851;28;20463;-83
2023/01/22 01:41:40;;;;;;;49.73;45.97;;;0.90;99.90;;;;;;5038741;28;20459;-82
2023/01/22 01:44:11;;;;;;;47.87;42.90;;;0.80;99.90;;;;;;5037700;28;20452;-82
2023/01/22 01:46:42;;;;;;;42.73;38.80;;;0.90;99.90;;;;;;5019443;28;20457;-83
2023/01/22 01:49:17;;;;;;;41.20;36.97;;;0.80;99.90;;;;;;5023187;28;20457;-82
2023/01/22 01:51:44;;;;;;;43.70;39.30;;;0.90;99.90;;;;;;5043139;28;20447;-82
2023/01/22 01:54:11;;;;;;;42.30;38.30;;;0.90;99.90;;;;;;5041572;28;20448;-83
2023/01/22 01:56:43;;;;;;;40.07;36.20;;;0.80;99.90;;;;;;5030955;28;20830;-82
2023/01/22 01:59:14;;;;;;;39.70;35.60;;;0.80;99.90;;;;;;5042639;28;20448;-82
2023/01/22 02:01:41;;;;;;;37.10;33.80;;;0.80;99.90;;;;;;5023070;28;20849;-81
2023/01/22 02:04:09;;;;;;;40.40;36.70;;;0.80;99.90;;;;;;5022492;28;20479;-83
2023/01/22 02:06:35;;;;;;;34.40;31.40;;;0.80;99.90;;;;;;5040947;28;20447;-82
2023/01/22 02:09:02;;;;;;;40.63;36.43;;;0.70;99.90;;;;;;5042541;28;20459;-82
2023/01/22 02:11:30;;;;;;;36.20;33.17;;;0.80;99.90;;;;;;5025357;28;20460;-82
2023/01/22 02:14:01;;;;;;;35.73;32.97;;;0.70;99.90;;;;;;5022538;28;20828;-83
2023/01/22 02:16:29;;;;;;;43.63;38.97;;;0.70;99.90;;;;;;5038370;28;20476;-82
2023/01/22 02:18:56;;;;;;;39.77;36.13;;;0.70;99.90;;;;;;5042102;28;20460;-82
2023/01/22 02:21:37;;;;;;;41.70;36.73;;;0.70;99.90;;;;;;5026572;28;20453;-82
2023/01/22 02:24:05;;;;;;;43.13;39.20;;;0.60;99.90;;;;;;5022904;28;20567;-82
2023/01/22 02:26:32;;;;;;;42.10;37.95;;;0.60;99.90;;;;;;5022048;28;20202;-78
2023/01/22 02:28:59;;;;;;;37.07;34.63;;;0.60;99.90;;;;;;5023096;28;20198;-82
2023/01/22 02:31:26;;;;;;;47.60;43.40;;;0.60;99.90;;;;;;5022800;28;20471;-82
2023/01/22 02:33:53;;;;;;;50.27;45.93;;;0.60;99.90;;;;;;5022125;28;20449;-82
2023/01/22 02:36:20;;;;;;;50.50;47.23;;;0.50;99.90;;;;;;5035085;28;20452;-82
2023/01/22 02:38:48;;;;;;;45.77;42.03;;;0.50;99.90;;;;;;5041457;28;20530;-82
2023/01/22 02:41:15;;;;;;;54.43;49.57;;;0.50;99.90;;;;;;5029578;28;20452;-82
2023/01/22 02:43:42;;;;;;;50.60;47.33;;;0.40;99.90;;;;;;5021475;28;20453;-82
2023/01/22 02:46:09;;;;;;;49.67;46.73;;;0.50;99.90;;;;;;5031490;28;20452;-82
2023/01/22 02:48:35;;;;;;;66.20;60.57;;;0.50;99.90;;;;;;5041727;28;20476;-82
2023/01/22 02:51:02;;;;;;;62.43;57.93;;;0.50;99.90;;;;;;5032313;28;20453;-82
2023/01/22 02:53:29;;;;;;;66.70;61.70;;;0.40;99.90;;;;;;5021921;28;20539;-81
2023/01/22 02:55:57;;;;;;;66.63;62.40;;;0.40;99.90;;;;;;5029376;28;20816;-82
2023/01/22 02:58:24;;;;;;;65.10;60.57;;;0.40;99.90;;;;;;5041362;28;20494;-82
2023/01/22 03:00:51;;;;;;;70.17;65.80;;;0.40;99.90;;;;;;5033805;28;20452;-82
2023/01/22 03:03:17;;;;;;;79.93;75.33;;;0.30;99.90;;;;;;5021600;28;20457;-82
2023/01/22 03:05:47;;;;;;;72.07;67.57;;;0.30;99.90;;;;;;5022262;28;20450;-82
2023/01/22 03:08:14;;;;;;;72.83;68.87;;;0.30;99.90;;;;;;5021233;28;20535;-82
2023/01/22 03:10:41;;;;;;;88.50;83.35;;;0.30;99.90;;;;;;5025348;28;20848;-82
2023/01/22 03:21:22;;;;;;;91.43;85.83;;;0.40;99.90;;;;;;5020914;28;20231;-83
2023/01/22 03:23:51;;;;;;;85.90;81.05;;;0.30;99.90;;;;;;5021199;28;20457;-83
2023/01/22 03:26:19;;;;;;;95.57;90.10;;;0.40;99.90;;;;;;5040240;28;20190;-83
2023/01/22 03:28:47;;;;;;;94.60;89.60;;;0.40;99.90;;;;;;5040245;28;20448;-82
2023/01/22 03:31:15;;;;;;;107.23;101.47;;;0.40;99.90;;;;;;5021386;28;20453;-82
2023/01/22 03:33:42;;;;;;;115.13;109.37;;;0.40;99.90;;;;;;5029415;28;20975;-82
2023/01/22 03:36:11;;;;;;;110.43;104.33;;;0.40;99.90;;;;;;5040099;28;20455;-82
2023/01/22 03:38:38;;;;;;;118.87;112.23;;;0.40;99.90;;;;;;5032366;28;20991;-82
2023/01/22 03:41:07;;;;;;;131.73;125.57;;;0.50;99.90;;;;;;5020312;28;20453;-81
2023/01/22 03:43:34;;;;;;;124.90;118.80;;;0.50;99.90;;;;;;5027655;28;20452;-82
2023/01/22 03:46:05;;;;;;;128.60;121.90;;;0.40;99.90;;;;;;5040637;28;20723;-82
2023/01/22 03:48:32;;;;;;;125.20;118.50;;;0.40;99.90;;;;;;5033803;28;20998;-83
2023/01/22 03:51:05;;;;;;;133.27;126.33;;;0.30;99.90;;;;;;5020988;28;20457;-82
2023/01/22 03:53:32;;;;;;;124.10;118.00;;;0.40;99.90;;;;;;5027847;28;20456;-82
2023/01/22 03:56:00;;;;;;;111.20;106.70;;;0.40;99.90;;;;;;5042613;28;20452;-83
2023/01/22 03:58:29;;;;;;;118.53;112.63;;;0.30;99.90;;;;;;5051041;22;21006;-81
2023/01/22 04:00:56;;;;;;;122.37;117.10;;;0.30;99.90;;;;;;5021335;28;20463;-81
2023/01/22 04:03:27;;;;;;;124.47;117.13;;;0.30;99.90;;;;;;5023709;28;20444;-81
2023/01/22 04:05:55;;;;;;;121.00;115.30;;;0.30;99.90;;;;;;5040546;28;20452;-81
2023/01/22 04:08:22;;;;;;;122.17;116.57;;;0.30;99.90;;;;;;5037932;28;21416;-81
2023/01/22 04:10:49;;;;;;;120.93;114.27;;;0.30;99.90;;;;;;5020858;28;20460;-81
2023/01/22 04:13:15;;;;;;;119.17;114.07;;;0.30;99.90;;;;;;5030157;28;20448;-80
2023/01/22 04:15:44;;;;;;;133.43;127.13;;;0.40;99.90;;;;;;5037925;28;20458;-80
2023/01/22 04:18:11;;;;;;;126.43;120.83;;;0.40;99.90;;;;;;5026276;28;20508;-80
2023/01/22 04:20:40;;;;;;;129.87;123.10;;;0.30;99.90;;;;;;5018679;28;20460;-80
2023/01/22 04:23:07;;;;;;;135.53;130.03;;;0.40;99.90;;;;;;5027381;28;20479;-80
2023/01/22 04:25:34;;;;;;;140.23;132.80;;;0.40;99.90;;;;;;5037850;28;20452;-80
2023/01/22 04:28:01;;;;;;;127.90;121.23;;;0.40;99.90;;;;;;5029155;28;20465;-79
2023/01/22 04:30:28;;;;;;;125.05;119.93;;;0.50;99.90;;;;;;5018099;28;20947;-80
2023/01/22 04:32:55;;;;;;;130.87;125.20;;;0.50;99.90;;;;;;5024145;28;20201;-80
2023/01/22 04:35:21;;;;;;;127.20;120.80;;;0.50;99.90;;;;;;5037452;28;20452;-80
2023/01/22 04:37:49;;;;;;;110.80;104.90;;;0.60;99.90;;;;;;5031880;28;20488;-80
2023/01/22 04:40:16;;;;;;;113.30;107.90;;;0.60;99.90;;;;;;5017523;28;20457;-80
2023/01/22 04:42:43;;;;;;;109.80;104.33;;;0.70;99.90;;;;;;5033203;28;20903;-81
2023/01/22 04:45:11;;;;;;;86.53;81.97;;;0.60;99.90;;;;;;5022469;28;20449;-80
2023/01/22 04:47:40;;;;;;;88.97;83.77;;;0.60;99.90;;;;;;5030440;28;20468;-81
2023/01/22 04:50:07;;;;;;;97.53;92.97;;;0.60;99.90;;;;;;5036421;28;20456;-80
2023/01/22 04:52:34;;;;;;;80.93;76.53;;;0.60;99.90;;;;;;5022952;28;20449;-80
2023/01/22 04:55:02;;;;;;;86.77;83.03;;;0.60;99.90;;;;;;5016380;28;20454;-80
2023/01/22 04:57:29;;;;;;;79.07;75.37;;;0.60;99.90;;;;;;5028984;28;20484;-80
2023/01/22 04:59:56;;;;;;;79.60;74.83;;;0.70;99.90;;;;;;5021439;28;20460;-82
2023/01/22 05:02:22;;;;;;;65.33;61.20;;;0.60;99.90;;;;;;5022614;28;20971;-81
2023/01/22 05:04:49;;;;;;;59.67;56.43;;;0.60;99.90;;;;;;5035895;28;20453;-82
2023/01/22 05:07:16;;;;;;;64.87;61.77;;;0.60;99.90;;;;;;5024062;28;20462;-80
2023/01/22 05:09:43;;;;;;;62.37;57.97;;;0.50;99.90;;;;;;5031154;28;20452;-80
2023/01/22 05:12:11;;;;;;;57.57;53.10;;;0.50;99.90;;;;;;5023197;28;20453;-78
2023/01/22 05:14:37;;;;;;;59.27;55.87;;;0.50;99.90;;;;;;5013979;28;20455;-81
2023/01/22 05:17:04;;;;;;;59.27;55.77;;;0.50;99.90;;;;;;5017867;28;20824;-80
2023/01/22 05:19:31;;;;;;;64.67;60.93;;;0.60;99.90;;;;;;5018285;28;20457;-81
2023/01/22 05:21:57;;;;;;;61.40;58.00;;;0.50;99.90;;;;;;5018395;28;20457;-80
2023/01/22 05:24:24;;;;;;;63.87;59.37;;;0.60;99.90;;;;;;5017452;28;20837;-80
2023/01/22 05:26:51;;;;;;;66.13;61.50;;;0.50;99.90;;;;;;5017356;28;21079;-80
2023/01/22 05:29:24;;;;;;;60.43;57.23;;;0.60;99.90;;;;;;5017800;28;20538;-80
2023/01/22 05:31:51;;;;;;;63.47;59.20;;;0.50;99.90;;;;;;5018741;28;20525;-80
2023/01/22 05:34:18;;;;;;;55.87;52.60;;;0.50;99.90;;;;;;5017649;28;20453;-80
2023/01/22 05:36:44;;;;;;;63.40;60.00;;;0.60;99.90;;;;;;5017625;28;20829;-79
2023/01/22 05:39:11;;;;;;;57.83;53.63;;;0.50;99.90;;;;;;5017002;28;20484;-80
2023/01/22 05:41:38;;;;;;;60.30;57.20;;;0.50;99.90;;;;;;5016345;28;20449;-81
2023/01/22 05:44:05;;;;;;;62.03;58.67;;;0.50;99.90;;;;;;5017452;28;20456;-80
2023/01/22 05:46:33;;;;;;;59.63;56.17;;;0.50;99.90;;;;;;5016914;28;20540;-77
2023/01/22 05:49:00;;;;;;;64.50;59.70;;;0.50;99.90;;;;;;5016850;28;20476;-80
2023/01/22 05:51:26;;;;;;;60.00;56.10;;;0.50;99.90;;;;;;5018626;28;20460;-81
2023/01/22 05:53:53;;;;;;;61.00;57.20;;;0.50;99.90;;;;;;5018390;28;20460;-80
2023/01/22 05:56:20;;;;;;;64.47;59.73;;;0.50;99.90;;;;;;5019467;28;20452;-81
2023/01/22 05:58:47;;;;;;;62.00;58.30;;;0.50;99.90;;;;;;5019452;28;20485;-84
2023/01/22 06:01:13;;;;;;;63.33;59.87;;;0.50;99.90;;;;;;5017478;28;20456;-80
2023/01/22 06:03:42;;;;;;;63.67;60.10;;;0.50;99.90;;;;;;5026242;28;20831;-80
2023/01/22 06:06:11;;;;;;;66.23;62.83;;;0.50;99.90;;;;;;5019807;28;20541;-80
2023/01/22 06:08:39;;;;;;;65.27;61.50;;;0.50;99.90;;;;;;5021929;28;20465;-80
2023/01/22 06:11:08;;;;;;;68.77;65.17;;;0.60;99.90;;;;;;5020706;28;20453;-80
2023/01/22 06:13:35;;;;;;;73.47;69.70;;;0.60;99.90;;;;;;5036158;28;20476;-81
2023/01/22 06:16:01;;;;;;;78.10;73.20;;;0.60;99.90;;;;;;5034324;28;20453;-81
2023/01/22 06:18:28;;;;;;;75.60;71.37;;;0.50;99.90;;;;;;5024924;28;20472;-80
2023/01/22 06:20:59;;;;;;;77.93;73.57;;;0.50;99.90;;;;;;5024709;28;20460;-81
2023/01/22 06:23:26;;;;;;;76.63;71.93;;;0.50;99.90;;;;;;5034631;28;20950;-81
2023/01/22 06:25:54;;;;;;;69.70;65.00;;;0.50;99.90;;;;;;5029524;28;21284;-80
2023/01/22 06:28:21;;;;;;;73.00;69.80;;;0.60;99.90;;;;;;5019441;28;20503;-80
2023/01/22 06:30:48;;;;;;;82.50;78.00;;;0.60;99.90;;;;;;5031005;28;20461;-81
2023/01/22 06:33:15;;;;;;;74.70;70.97;;;0.60;99.90;;;;;;5018998;28;20484;-80
2023/01/22 06:35:42;;;;;;;71.83;67.57;;;0.50;99.90;;;;;;5030679;28;20976;-80
2023/01/22 06:38:10;;;;;;;78.37;73.90;;;0.60;99.90;;;;;;5032801;28;20480;-81
2023/01/22 06:40:37;;;;;;;73.77;69.67;;;0.50;99.90;;;;;;5033276;28;20460;-80
2023/01/22 06:43:05;;;;;;;79.43;74.57;;;0.60;99.90;;;;;;5024218;28;20852;-80
2023/01/22 06:45:31;;;;;;;82.37;77.27;;;0.60;99.90;;;;;;5034580;28;20467;-80
2023/01/22 06:47:58;;;;;;;80.63;75.87;;;0.60;99.90;;;;;;5019294;28;21007;-80
2023/01/22 06:50:25;;;;;;;73.20;67.97;;;0.60;99.90;;;;;;5020440;28;20974;-80
2023/01/22 06:52:52;;;;;;;70.87;67.60;;;0.60;99.90;;;;;;5021142;28;20449;-80
2023/01/22 06:55:20;;;;;;;77.10;73.70;;;0.60;99.90;;;;;;5027375;28;20449;-76
2023/01/22 06:57:46;;;;;;;87.10;81.87;;;0.60;99.90;;;;;;5035700;28;20468;-80
2023/01/22 07:00:14;;;;;;;79.00;74.68;;;0.60;99.90;;;;;;5028228;28;20828;-82
2023/01/22 07:02:41;;;;;;;89.43;84.07;;;0.60;99.90;;;;;;5028374;28;20631;-80
2023/01/22 07:05:08;;;;;;;83.87;78.90;;;0.60;99.90;;;;;;5027093;28;20464;-80
2023/01/22 07:07:35;;;;;;;87.87;82.63;;;0.60;99.90;;;;;;5027291;28;20849;-80
2023/01/22 07:10:01;;;;;;;84.13;79.67;;;0.60;99.90;;;;;;5019071;28;20457;-80
2023/01/22 07:12:30;;;;;;;80.47;76.07;;;0.60;99.90;;;;;;5019990;28;20465;-80
2023/01/22 07:14:56;;;;;;;79.00;74.55;;;0.60;99.90;;;;;;5022565;28;20205;-80
2023/01/22 07:17:23;;;;;;;86.43;82.03;;;0.60;99.90;;;;;;5025113;28;20724;-80
2023/01/22 07:19:50;;;;;;;85.33;81.30;;;0.70;99.90;;;;;;5032597;28;20478;-80
2023/01/22 07:22:16;;;;;;;86.40;81.73;;;0.60;99.90;;;;;;5026420;28;20461;-80
2023/01/22 07:24:43;;;;;;;77.40;73.03;;;0.60;99.90;;;;;;5040028;28;20452;-80
2023/01/22 07:27:10;;;;;;;83.33;77.90;;;0.60;99.90;;;;;;5034388;28;20479;-80
2023/01/22 07:29:38;;;;;;;83.13;78.80;;;0.60;99.90;;;;;;5030681;28;20840;-80
2023/01/22 07:32:05;;;;;;;80.67;75.90;;;0.60;99.90;;;;;;5020883;28;20452;-78
2023/01/22 07:34:32;;;;;;;78.40;74.23;;;0.70;99.90;;;;;;5025278;28;20479;-79
2023/01/22 07:37:00;;;;;;;88.07;82.82;;;0.70;99.90;;;;;;5026880;28;20456;-79
2023/01/22 07:39:27;;;;;;;87.70;81.80;;;0.70;99.90;;;;;;5028371;28;20308;-80
2023/01/22 07:41:54;;;;;;;83.90;79.43;;;0.70;99.90;;;;;;5028299;28;20803;-79
2023/01/22 07:44:21;;;;;;;95.30;90.30;;;0.80;99.90;;;;;;5027199;28;20460;-80
2023/01/22 07:46:49;;;;;;;94.50;89.33;;;0.80;99.90;;;;;;5034790;28;20457;-79
2023/01/22 07:49:15;;;;;;;100.20;94.53;;;0.70;99.90;;;;;;5026568;28;20452;-80
2023/01/22 07:51:42;;;;;;;89.57;84.80;;;0.80;99.90;;;;;;5019509;28;20826;-80
2023/01/22 07:54:09;;;;;;;83.97;79.80;;;0.80;99.90;;;;;;5024412;28;20462;-80
2023/01/22 07:56:35;;;;;;;80.33;76.10;;;0.80;99.90;;;;;;5027566;28;20459;-79
2023/01/22 07:59:02;;;;;;;87.60;83.37;;;0.80;99.90;;;;;;5029296;28;20476;-79
2023/01/22 08:01:29;;;;;;;79.90;75.80;;;0.90;99.90;;;;;;5030553;28;20480;-80
2023/01/22 08:03:57;;;;;;;82.45;77.90;;;0.80;99.90;;;;;;5024828;28;20460;-79
2023/01/22 08:06:24;;;;;;;73.03;68.97;;;0.90;99.90;;;;;;5020259;28;20211;-79
2023/01/22 08:08:50;;;;;;;84.90;80.90;;;0.90;99.90;;;;;;5024655;28;20461;-79
2023/01/22 08:11:17;;;;;;;89.30;85.27;;;0.90;99.90;;;;;;5035510;28;20458;-78
2023/01/22 08:13:44;;;;;;;91.10;86.13;;;0.90;99.90;;;;;;5032449;28;20526;-79
2023/01/22 08:16:11;;;;;;;83.40;79.60;;;0.90;99.90;;;;;;5020703;28;20453;-79
2023/01/22 08:18:37;;;;;;;81.90;77.43;;;1.00;99.90;;;;;;5024569;28;20491;-79
2023/01/22 08:21:06;;;;;;;84.80;80.20;;;1.00;99.90;;;;;;5020288;28;20458;-79
2023/01/22 08:23:33;;;;;;;79.43;75.60;;;0.90;99.90;;;;;;5018786;28;20892;-79
2023/01/22 08:25:59;;;;;;;73.87;70.20;;;0.90;99.90;;;;;;5019854;28;20445;-79
2023/01/22 08:28:26;;;;;;;71.20;66.67;;;1.00;99.90;;;;;;5012032;28;20473;-78
2023/01/22 08:30:58;;;;;;;68.07;63.47;;;0.90;99.90;;;;;;5019229;28;20460;-78
2023/01/22 08:33:25;;;;;;;69.77;65.63;;;1.00;99.90;;;;;;5012103;28;20859;-79
2023/01/22 08:35:51;;;;;;;73.93;69.70;;;1.00;99.90;;;;;;5015291;28;20457;-79
2023/01/22 08:38:20;;;;;;;66.37;63.67;;;1.00;99.90;;;;;;5018970;28;20480;-78
2023/01/22 08:40:49;;;;;;;78.13;74.50;;;1.00;99.90;;;;;;5010543;28;20461;-79
2023/01/22 08:43:16;;;;;;;65.53;61.50;;;1.00;99.90;;;;;;5022045;28;20453;-79
2023/01/22 08:45:43;;;;;;;70.57;66.37;;;1.00;99.90;;;;;;5019908;28;20829;-78
2023/01/22 08:48:10;;;;;;;64.70;61.53;;;1.00;99.90;;;;;;5015649;28;20473;-76
2023/01/22 08:50:37;;;;;;;54.55;50.25;;;1.00;99.90;;;;;;5028509;28;20461;-79
2023/01/22 08:53:03;;;;;;;98.87;94.07;;;1.00;99.90;;;;;;5015913;28;20582;-79
2023/01/22 08:55:31;;;;;;;72.85;68.90;;;1.00;99.90;;;;;;5025448;28;20460;-79
2023/01/22 08:57:58;;;;;;;59.33;54.60;;;0.90;99.90;;;;;;5021309;28;20226;-79
2023/01/22 09:00:26;;;;;;;52.73;49.73;;;1.00;99.90;;;;;;5019552;28;20441;-79
2023/01/22 09:02:57;;;;;;;51.77;47.70;;;1.00;99.90;;;;;;5028610;28;20571;-80
2023/01/22 09:05:23;;;;;;;45.93;43.17;;;1.00;99.90;;;;;;5016838;28;20453;-79
2023/01/22 09:07:50;;;;;;;49.33;45.43;;;1.00;99.90;;;;;;5024508;28;20475;-80
2023/01/22 09:10:17;;;;;;;51.70;48.50;;;1.00;99.90;;;;;;5035222;28;20455;-79
2023/01/22 09:12:45;;;;;;;49.33;46.00;;;1.00;99.90;;;;;;5029530;28;20454;-79
2023/01/22 09:15:12;;;;;;;55.00;51.03;;;1.00;99.90;;;;;;5023887;28;20805;-79
2023/01/22 09:17:40;;;;;;;58.93;55.27;;;1.10;99.90;;;;;;5014128;28;20548;-79
2023/01/22 09:20:08;;;;;;;60.37;57.10;;;1.10;99.90;;;;;;5021446;28;20553;-79
2023/01/22 09:22:35;;;;;;;67.30;63.80;;;1.10;99.90;;;;;;5028080;28;20818;-78
2023/01/22 09:25:03;;;;;;;69.63;65.60;;;1.10;99.90;;;;;;5034473;28;20463;-79
2023/01/22 09:27:30;;;;;;;72.73;68.47;;;1.10;99.90;;;;;;5022528;28;20469;-79
2023/01/22 09:29:58;;;;;;;76.83;72.50;;;1.10;99.90;;;;;;5027121;28;20456;-79
2023/01/22 09:32:25;;;;;;;85.77;82.17;;;1.10;99.90;;;;;;5027228;28;20464;-79
2023/01/22 09:34:52;;;;;;;83.47;79.43;;;1.20;99.90;;;;;;5013611;28;20457;-78
2023/01/22 09:37:18;;;;;;;88.93;85.43;;;1.10;99.90;;;;;;5015257;28;20484;-79
2023/01/22 09:39:48;;;;;;;79.43;75.73;;;1.10;99.90;;;;;;5033153;28;20475;-79
2023/01/22 09:42:22;;;;;;;88.03;84.13;;;1.00;99.90;;;;;;5021701;28;20457;-79
2023/01/22 09:44:53;;;;;;;72.17;68.90;;;1.00;99.90;;;;;;5022506;28;20455;-79
2023/01/22 09:47:33;;;;;;;75.33;72.10;;;1.00;99.90;;;;;;5013918;28;20866;-79
2023/01/22 09:50:04;;;;;;;70.57;67.47;;;1.00;99.90;;;;;;5013631;28;20448;-79
2023/01/22 09:52:36;;;;;;;63.13;59.63;;;1.00;99.90;;;;;;5016690;28;20461;-79
2023/01/22 09:55:03;;;;;;;78.40;74.87;;;1.00;99.90;;;;;;5013244;28;20833;-78
2023/01/22 09:57:30;;;;;;;63.83;59.70;;;1.00;99.90;;;;;;5023995;28;20832;-79
2023/01/22 09:59:57;;;;;;;108.57;102.97;;;1.10;99.90;;;;;;5017155;28;20218;-80
2023/01/22 10:02:30;;;;;;;106.90;102.00;;;1.10;99.90;;;;;;5016753;28;20453;-80
2023/01/22 10:05:02;;;;;;;82.43;77.93;;;1.10;99.90;;;;;;5016725;28;20462;-79
2023/01/22 10:07:33;;;;;;;102.20;96.17;;;1.10;99.90;;;;;;5011219;28;20292;-81
2023/01/22 10:10:15;;;;;;;95.47;90.77;;;1.20;99.90;;;;;;5015032;28;20441;-80
2023/01/22 10:12:41;;;;;;;71.50;68.20;;;1.20;99.90;;;;;;5017100;28;20460;-79
2023/01/22 10:15:14;;;;;;;75.03;71.50;;;1.10;99.90;;;;;;5016274;28;20966;-79
2023/01/22 10:17:42;;;;;;;64.00;60.07;;;1.20;99.90;;;;;;5016155;28;21022;-79
2023/01/22 10:20:12;;;;;;;71.67;68.33;;;1.20;99.90;;;;;;5016208;28;20476;-79
2023/01/22 10:22:39;;;;;;;78.93;75.07;;;1.20;99.90;;;;;;5016580;28;20452;-79
2023/01/22 10:25:09;;;;;;;74.80;71.50;;;1.20;99.90;;;;;;5031715;28;20455;-81
2023/01/22 10:27:38;;;;;;;74.70;70.70;;;1.30;99.90;;;;;;5025675;28;20473;-80
2023/01/22 10:30:17;;;;;;;85.53;81.57;;;1.30;99.90;;;;;;5028653;28;20502;-80
2023/01/22 10:32:45;;;;;;;81.50;76.97;;;1.20;99.90;;;;;;5027052;28;20497;-80
2023/01/22 10:35:18;;;;;;;84.80;80.53;;;1.30;99.90;;;;;;5022739;28;20455;-80
2023/01/22 10:37:47;;;;;;;83.37;78.67;;;1.20;99.90;;;;;;5032566;28;20467;-80
2023/01/22 10:40:36;;;;;;;89.13;85.23;;;1.30;99.90;;;;;;5030523;28;20480;-79
2023/01/22 10:43:06;;;;;;;88.63;82.87;;;1.30;99.90;;;;;;5025880;28;20475;-80
2023/01/22 10:45:33;;;;;;;91.50;87.60;;;1.30;99.90;;;;;;5021994;28;20449;-81
2023/01/22 10:48:13;;;;;;;91.13;86.30;;;1.30;99.90;;;;;;5030973;28;20468;-80
2023/01/22 10:50:40;;;;;;;93.73;88.47;;;1.30;99.90;;;;;;5030831;28;20441;-78
2023/01/22 10:53:19;;;;;;;102.33;97.13;;;1.30;99.90;;;;;;5027562;28;20455;-82
2023/01/22 10:55:52;;;;;;;104.20;99.47;;;1.30;99.90;;;;;;4997603;28;20834;-79
2023/01/22 10:58:21;;;;;;;90.90;86.40;;;1.30;99.90;;;;;;5032869;28;20487;-82
2023/01/22 11:00:57;;;;;;;91.77;87.17;;;1.30;99.90;;;;;;5033169;28;20547;-80
2023/01/22 11:03:31;;;;;;;88.57;84.10;;;1.30;99.90;;;;;;5036034;28;20455;-80
2023/01/22 11:06:01;;;;;;;87.90;83.67;;;1.40;99.90;;;;;;5022637;28;20457;-80
2023/01/22 11:08:33;;;;;;;87.23;82.53;;;1.40;99.90;;;;;;5031508;28;20468;-82
2023/01/22 11:11:04;;;;;;;90.27;85.87;;;1.40;99.90;;;;;;5024705;28;20453;-79
2023/01/22 11:13:39;;;;;;;83.73;79.43;;;1.40;99.90;;;;;;5018539;28;20457;-80
2023/01/22 11:16:12;;;;;;;86.93;82.30;;;1.40;99.90;;;;;;5018471;28;20805;-80
2023/01/22 11:18:43;;;;;;;92.60;87.50;;;1.40;99.90;;;;;;5027341;28;20468;-80
2023/01/22 11:21:14;;;;;;;73.27;69.10;;;1.50;99.90;;;;;;5032667;28;20551;-80
2023/01/22 11:23:49;;;;;;;78.20;73.50;;;1.50;99.90;;;;;;5022595;28;20805;-80
2023/01/22 11:26:25;;;;;;;92.13;88.13;;;1.50;99.90;;;;;;5025828;28;20456;-80
2023/01/22 11:29:01;;;;;;;83.17;78.57;;;1.50;99.90;;;;;;5025291;28;20472;-81
2023/01/22 11:31:38;;;;;;;85.03;81.30;;;1.60;99.90;;;;;;5037989;28;20452;-82
2023/01/22 11:34:26;;;;;;;87.67;83.80;;;1.50;99.90;;;;;;5022684;28;20453;-80
2023/01/22 11:36:59;;;;;;;77.47;74.37;;;1.50;99.90;;;;;;5016448;28;20449;-80
2023/01/22 11:39:44;;;;;;;78.37;73.67;;;1.60;99.90;;;;;;5022070;28;20472;-80
2023/01/22 11:42:22;;;;;;;80.10;75.60;;;1.60;99.90;;;;;;5016969;28;20462;-80
2023/01/22 11:45:00;;;;;;;85.50;80.83;;;1.70;99.90;;;;;;5017406;28;20456;-81
2023/01/22 11:48:01;;;;;;;91.17;86.37;;;1.70;99.90;;;;;;5019598;28;20472;-80
2023/01/22 11:50:33;;;;;;;83.40;79.47;;;1.70;99.90;;;;;;5037327;28;20943;-82
2023/01/22 11:53:13;;;;;;;72.00;67.10;;;1.70;99.90;;;;;;5030114;28;20852;-80
2023/01/22 11:56:05;;;;;;;64.83;60.43;;;1.60;99.90;;;;;;5029353;28;20813;-80
2023/01/22 11:58:44;;;;;;;60.17;55.20;;;1.60;99.90;;;;;;5032654;28;20543;-80
2023/01/22 12:01:19;;;;;;;65.23;62.07;;;1.70;99.90;;;;;;5027422;28;20487;-80
2023/01/22 12:04:19;;;;;;;71.97;68.23;;;1.80;99.90;;;;;;5017255;28;20460;-79
2023/01/22 12:07:15;;;;;;;82.30;78.00;;;1.80;99.90;;;;;;5028438;28;20455;-80
2023/01/22 12:09:50;;;;;;;70.83;66.97;;;1.80;99.90;;;;;;5026500;28;20456;-81
2023/01/22 12:12:31;;;;;;;72.10;68.60;;;1.80;99.90;;;;;;5026051;28;20448;-80
2023/01/22 12:15:14;;;;;;;64.93;61.93;;;1.80;99.90;;;;;;5022344;28;20464;-80
2023/01/22 12:17:51;;;;;;;71.17;67.43;;;1.80;99.90;;;;;;5016324;28;20475;-80
2023/01/22 12:20:49;;;;;;;63.73;59.53;;;1.80;99.90;;;;;;5027224;28;20556;-80
2023/01/22 12:23:22;;;;;;;64.77;61.27;;;1.70;99.90;;;;;;5035859;28;20575;-80
2023/01/22 12:25:53;;;;;;;55.83;52.07;;;1.70;99.90;;;;;;5020745;28;20453;-80
2023/01/22 12:28:26;;;;;;;53.70;50.80;;;1.80;99.90;;;;;;5015829;28;20484;-80
2023/01/22 12:31:00;;;;;;;54.83;51.23;;;1.70;99.90;;;;;;5031716;28;20448;-80
2023/01/22 12:33:30;;;;;;;53.73;50.50;;;1.80;99.90;;;;;;4994948;28;20466;-80
2023/01/22 12:36:00;;;;;;;48.00;44.77;;;1.70;99.90;;;;;;5027696;28;20449;-80
2023/01/22 12:38:52;;;;;;;49.63;46.40;;;1.70;99.90;;;;;;5024064;28;20540;-79
2023/01/22 12:41:32;;;;;;;60.07;56.07;;;1.80;99.90;;;;;;5015469;28;20858;-80
2023/01/22 12:44:02;;;;;;;52.07;48.90;;;1.80;99.90;;;;;;5030142;28;20856;-81
2023/01/22 12:46:36;;;;;;;56.17;52.30;;;1.90;99.90;;;;;;5035400;28;20868;-81
2023/01/22 12:49:06;;;;;;;66.70;62.80;;;1.90;99.90;;;;;;5020550;28;20469;-79
2023/01/22 12:51:39;;;;;;;62.70;59.00;;;1.80;99.90;;;;;;5015779;28;20446;-80